Time;durP1;ratioP1;P1;durP2;ratioP2;P2;SDS_P1;SDS_P2;PMS_P1;PMS_P2;Temp;Humidity;BMP_temperature;BMP_pressure;BME280_temperature;BME280_humidity;BME280_pressure;Samples;Min_cycle;Max_cycle;Signal;HPM_P1;HPM_P2
2022/01/11 00:02:15;;;;;;;75.78;49.65;;;1.80;99.90;;;;;;5005060;28;20034;-76
2022/01/11 00:04:41;;;;;;;79.22;55.78;;;1.70;99.90;;;;;;5007830;28;20026;-75
2022/01/11 00:07:10;;;;;;;74.93;50.72;;;1.80;99.90;;;;;;5002270;28;20045;-74
2022/01/11 00:09:40;;;;;;;78.78;54.35;;;1.80;99.90;;;;;;4995632;28;20026;-75
2022/01/11 00:12:08;;;;;;;65.20;46.30;;;1.90;99.90;;;;;;4998893;28;20010;-73
2022/01/11 00:14:35;;;;;;;77.75;55.28;;;1.80;99.90;;;;;;5006100;28;20018;-73
2022/01/11 00:17:01;;;;;;;75.60;52.03;;;1.90;99.90;;;;;;5010305;28;20420;-73
2022/01/11 00:19:28;;;;;;;69.40;49.15;;;2.00;99.90;;;;;;5011672;28;20033;-73
2022/01/11 00:21:54;;;;;;;58.72;43.60;;;2.10;99.90;;;;;;4994786;28;20508;-73
2022/01/11 00:24:30;;;;;;;61.03;43.83;;;2.10;99.90;;;;;;5003093;28;20044;-73
2022/01/11 00:27:02;;;;;;;52.53;39.33;;;2.00;99.90;;;;;;5011600;28;20018;-73
2022/01/11 00:29:29;;;;;;;61.70;44.28;;;2.00;99.90;;;;;;5010406;28;20061;-74
2022/01/11 00:31:58;;;;;;;59.00;43.63;;;2.00;99.90;;;;;;5011449;28;20418;-74
2022/01/11 00:34:25;;;;;;;67.55;48.42;;;2.10;99.90;;;;;;5003397;28;20022;-74
2022/01/11 00:36:51;;;;;;;49.85;38.45;;;1.90;99.90;;;;;;5002499;28;20020;-75
2022/01/11 00:39:16;;;;;;;60.15;43.00;;;1.80;99.90;;;;;;5010832;28;20109;-74
2022/01/11 00:41:43;;;;;;;55.97;40.55;;;2.10;99.90;;;;;;5015302;28;20033;-74
2022/01/11 00:44:10;;;;;;;67.10;48.63;;;2.00;99.90;;;;;;5001954;28;20026;-75
2022/01/11 00:46:36;;;;;;;75.13;51.20;;;2.00;99.90;;;;;;5003471;28;20460;-75
2022/01/11 00:49:03;;;;;;;73.32;52.03;;;2.00;99.90;;;;;;5015232;28;20022;-74
2022/01/11 00:51:28;;;;;;;64.25;45.65;;;2.00;99.90;;;;;;5013847;28;20080;-74
2022/01/11 00:53:55;;;;;;;55.97;43.15;;;2.10;99.90;;;;;;5013210;28;20435;-74
2022/01/11 00:56:20;;;;;;;64.90;43.78;;;2.00;99.90;;;;;;5009004;28;20018;-74
2022/01/11 00:58:47;;;;;;;66.75;48.85;;;2.10;99.90;;;;;;5001138;28;20081;-76
2022/01/11 01:01:13;;;;;;;82.80;54.97;;;1.90;99.90;;;;;;5007939;28;20052;-75
2022/01/11 01:03:39;;;;;;;94.55;60.40;;;1.90;99.90;;;;;;5003267;28;20504;-75
2022/01/11 01:06:04;;;;;;;74.28;50.13;;;1.90;99.90;;;;;;5001254;28;20073;-76
2022/01/11 01:08:30;;;;;;;73.60;48.47;;;1.90;99.90;;;;;;5009170;28;20030;-75
2022/01/11 01:10:55;;;;;;;68.47;48.25;;;1.90;99.90;;;;;;5014856;28;20032;-75
2022/01/11 01:13:24;;;;;;;78.90;51.30;;;1.90;99.90;;;;;;5014853;28;20044;-75
2022/01/11 01:15:51;;;;;;;56.53;41.28;;;1.90;99.90;;;;;;5013277;28;20022;-75
2022/01/11 01:18:21;;;;;;;56.70;42.33;;;1.90;99.90;;;;;;5014770;28;20053;-74
2022/01/11 01:20:47;;;;;;;66.22;46.33;;;2.00;99.90;;;;;;5011414;28;20435;-74
2022/01/11 01:23:13;;;;;;;56.95;42.47;;;1.90;99.90;;;;;;4998120;28;20027;-74
2022/01/11 01:25:43;;;;;;;50.80;41.03;;;2.00;99.90;;;;;;5013221;28;20427;-74
2022/01/11 01:28:09;;;;;;;61.33;44.15;;;2.00;99.90;;;;;;5006260;28;20030;-73
2022/01/11 01:30:36;;;;;;;74.40;49.30;;;2.00;99.90;;;;;;5006533;28;20037;-74
2022/01/11 01:33:02;;;;;;;68.63;48.08;;;2.00;99.90;;;;;;5009240;28;20539;-73
2022/01/11 01:35:37;;;;;;;67.80;47.33;;;2.00;99.90;;;;;;5014536;28;20104;-73
2022/01/11 01:38:03;;;;;;;68.43;45.92;;;2.00;99.90;;;;;;5014412;28;20018;-74
2022/01/11 01:40:36;;;;;;;96.15;58.67;;;1.90;99.90;;;;;;5012979;28;20510;-77
2022/01/11 01:43:04;;;;;;;112.88;62.35;;;1.90;99.90;;;;;;5003534;28;20484;-76
2022/01/11 01:45:30;;;;;;;103.38;60.08;;;1.60;99.90;;;;;;4993954;28;20074;-76
2022/01/11 01:47:57;;;;;;;70.55;49.42;;;1.60;99.90;;;;;;5008785;28;20014;-76
2022/01/11 01:50:23;;;;;;;62.60;44.15;;;1.60;99.90;;;;;;5000097;28;20473;-76
2022/01/11 01:52:49;;;;;;;50.80;37.75;;;1.70;99.90;;;;;;5000125;28;20075;-76
2022/01/11 01:55:14;;;;;;;59.67;44.30;;;1.70;99.90;;;;;;5013792;28;20030;-76
2022/01/11 01:57:40;;;;;;;62.33;44.25;;;1.80;99.90;;;;;;5012715;28;20083;-76
2022/01/11 02:00:07;;;;;;;62.78;44.40;;;2.00;99.90;;;;;;5014002;28;20045;-76
2022/01/11 02:02:35;;;;;;;70.57;46.22;;;1.80;99.90;;;;;;5013774;28;20399;-76
2022/01/11 02:05:02;;;;;;;77.20;49.20;;;1.80;99.90;;;;;;5001153;28;20026;-76
2022/01/11 02:07:27;;;;;;;75.40;50.47;;;1.80;99.90;;;;;;5007472;28;20022;-75
2022/01/11 02:13:14;;;;;;;60.53;43.17;;;1.80;99.90;;;;;;4994854;28;20029;-76
2022/01/11 02:15:40;;;;;;;67.63;47.97;;;1.90;99.90;;;;;;5007103;28;20030;-77
2022/01/11 02:18:26;;;;;;;70.75;50.00;;;1.90;99.90;;;;;;5007284;28;20373;-76
2022/01/11 02:20:58;;;;;;;82.00;54.50;;;1.90;99.90;;;;;;4992936;28;20101;-76
2022/01/11 02:23:25;;;;;;;78.60;54.63;;;1.80;99.90;;;;;;5005994;28;20034;-75
2022/01/11 02:25:51;;;;;;;79.38;53.75;;;1.80;99.90;;;;;;4994269;28;20166;-75
2022/01/11 02:28:20;;;;;;;62.35;46.55;;;1.80;99.90;;;;;;4999417;28;20481;-73
2022/01/11 02:30:46;;;;;;;67.85;49.47;;;1.80;99.90;;;;;;5001247;28;20027;-74
2022/01/11 02:33:32;;;;;;;54.42;42.22;;;1.90;99.90;;;;;;4994013;28;20029;-74
2022/01/11 02:35:59;;;;;;;64.00;48.17;;;1.80;99.90;;;;;;5006716;28;20022;-74
2022/01/11 02:38:24;;;;;;;51.83;40.13;;;1.80;99.90;;;;;;5000712;28;20140;-74
2022/01/11 02:40:50;;;;;;;67.68;50.65;;;1.80;99.90;;;;;;4998791;28;20038;-74
2022/01/11 02:43:16;;;;;;;76.03;50.65;;;1.80;99.90;;;;;;5006550;28;20473;-75
2022/01/11 02:45:41;;;;;;;61.67;46.78;;;1.80;99.90;;;;;;4980979;28;20544;-74
2022/01/11 02:48:07;;;;;;;74.57;49.95;;;1.80;99.90;;;;;;5006131;28;20152;-75
2022/01/11 02:50:33;;;;;;;74.90;51.05;;;1.80;99.90;;;;;;5006551;28;20026;-75
2022/01/11 02:52:58;;;;;;;66.18;46.22;;;1.70;99.90;;;;;;4993507;28;20080;-74
2022/01/11 02:55:24;;;;;;;111.95;64.65;;;1.70;99.90;;;;;;5006480;28;20022;-74
2022/01/11 02:57:49;;;;;;;68.18;48.45;;;1.60;99.90;;;;;;5005743;28;20049;-74
2022/01/11 03:00:19;;;;;;;52.38;38.97;;;1.60;99.90;;;;;;5006293;28;20153;-75
2022/01/11 03:02:45;;;;;;;64.72;45.92;;;1.70;99.90;;;;;;4987000;28;20104;-74
2022/01/11 03:05:12;;;;;;;51.33;38.90;;;1.70;99.90;;;;;;4998512;28;20029;-75
2022/01/11 03:07:39;;;;;;;73.97;49.03;;;1.80;99.90;;;;;;5006468;28;20046;-74
2022/01/11 03:10:16;;;;;;;58.38;43.60;;;1.80;99.90;;;;;;5004928;28;20022;-74
2022/01/11 03:12:43;;;;;;;65.07;47.70;;;1.80;99.90;;;;;;4973850;28;20109;-74
2022/01/11 03:15:11;;;;;;;55.75;43.45;;;1.80;99.90;;;;;;5001256;28;20484;-74
2022/01/11 03:17:37;;;;;;;74.82;49.80;;;1.70;99.90;;;;;;5001193;28;20133;-74
2022/01/11 03:20:04;;;;;;;59.75;45.50;;;1.80;99.90;;;;;;4998272;28;20034;-74
2022/01/11 03:22:29;;;;;;;73.50;49.22;;;1.80;99.90;;;;;;5000845;28;20038;-75
2022/01/11 03:24:55;;;;;;;58.13;43.20;;;1.80;99.90;;;;;;4997947;28;20049;-74
2022/01/11 03:27:20;;;;;;;84.22;55.55;;;1.90;99.90;;;;;;5004147;28;20099;-73
2022/01/11 03:29:46;;;;;;;56.40;42.92;;;1.80;99.90;;;;;;5007636;28;20026;-73
2022/01/11 03:32:16;;;;;;;55.97;42.83;;;1.80;99.90;;;;;;5012195;28;20030;-72
2022/01/11 03:34:45;;;;;;;60.67;44.20;;;1.80;99.90;;;;;;5010247;28;20033;-73
2022/01/11 03:37:13;;;;;;;71.47;48.55;;;1.80;99.90;;;;;;4996542;28;20098;-73
2022/01/11 03:39:39;;;;;;;55.92;42.15;;;1.80;99.90;;;;;;5002320;28;20023;-72
2022/01/11 03:42:05;;;;;;;58.08;43.63;;;1.80;99.90;;;;;;5002030;28;20026;-73
2022/01/11 03:44:30;;;;;;;60.60;44.80;;;1.80;99.90;;;;;;4992928;28;20019;-74
2022/01/11 03:46:56;;;;;;;82.68;53.83;;;1.80;99.90;;;;;;5003728;28;20029;-73
2022/01/11 03:49:21;;;;;;;64.50;46.75;;;1.80;99.90;;;;;;5012603;28;20109;-73
2022/01/11 03:51:49;;;;;;;68.85;50.25;;;1.80;99.90;;;;;;5010694;28;20034;-73
2022/01/11 03:54:22;;;;;;;64.07;46.22;;;1.80;99.90;;;;;;5011825;28;20033;-73
2022/01/11 03:56:48;;;;;;;64.55;46.38;;;1.80;99.90;;;;;;4999399;28;20072;-74
2022/01/11 03:59:14;;;;;;;57.65;43.05;;;1.70;99.90;;;;;;5008914;28;20030;-73
2022/01/11 04:01:39;;;;;;;79.25;51.90;;;1.80;99.90;;;;;;5010420;28;20029;-74
2022/01/11 04:04:06;;;;;;;70.13;50.33;;;1.80;99.90;;;;;;4996653;28;20027;-74
2022/01/11 04:06:32;;;;;;;74.38;51.78;;;1.70;99.90;;;;;;4993009;28;20400;-73
2022/01/11 04:08:57;;;;;;;85.00;56.30;;;1.70;99.90;;;;;;5000050;28;20022;-72
2022/01/11 04:11:23;;;;;;;77.90;52.67;;;1.70;99.90;;;;;;4996931;28;20030;-74
2022/01/11 04:13:49;;;;;;;64.95;47.08;;;1.70;99.90;;;;;;5005501;28;20046;-75
2022/01/11 04:16:15;;;;;;;79.68;51.45;;;1.70;99.90;;;;;;5003424;28;20025;-73
2022/01/11 04:18:40;;;;;;;97.43;58.72;;;1.70;99.90;;;;;;4998544;28;20046;-72
2022/01/11 04:21:06;;;;;;;86.65;56.25;;;1.60;99.90;;;;;;5011665;28;20018;-73
2022/01/11 04:23:33;;;;;;;92.53;57.53;;;1.50;99.90;;;;;;4997406;28;20041;-72
2022/01/11 04:25:59;;;;;;;95.18;57.17;;;1.50;99.90;;;;;;4993882;28;20058;-74
2022/01/11 04:28:26;;;;;;;88.15;59.10;;;1.60;99.90;;;;;;5003816;28;20089;-75
2022/01/11 04:30:52;;;;;;;69.80;49.00;;;1.50;99.90;;;;;;5003591;28;20053;-75
2022/01/11 04:33:19;;;;;;;68.82;47.88;;;1.60;99.90;;;;;;5010442;28;20041;-74
2022/01/11 04:35:48;;;;;;;69.47;49.88;;;1.60;99.90;;;;;;4999695;28;20022;-74
2022/01/11 04:38:23;;;;;;;65.78;47.03;;;1.70;99.90;;;;;;5011062;28;20630;-74
2022/01/11 04:40:50;;;;;;;72.90;51.58;;;1.70;99.90;;;;;;5010342;28;20041;-74
2022/01/11 04:43:16;;;;;;;66.55;44.53;;;1.60;99.90;;;;;;5004500;28;20046;-75
2022/01/11 04:45:41;;;;;;;59.20;42.90;;;1.60;99.90;;;;;;4992580;28;20023;-74
2022/01/11 04:48:07;;;;;;;63.08;44.15;;;1.70;99.90;;;;;;5002851;28;20026;-75
2022/01/11 04:50:33;;;;;;;62.22;43.78;;;1.70;99.90;;;;;;5003907;28;20029;-74
2022/01/11 04:52:59;;;;;;;65.18;45.17;;;1.70;99.90;;;;;;4999233;28;20093;-75
2022/01/11 04:55:26;;;;;;;49.63;37.55;;;1.70;99.90;;;;;;4998557;28;20038;-76
2022/01/11 04:57:53;;;;;;;55.72;38.10;;;1.60;99.90;;;;;;4993237;28;20030;-76
2022/01/11 05:00:21;;;;;;;50.40;34.55;;;1.70;99.90;;;;;;4990871;28;20039;-76
2022/01/11 05:02:47;;;;;;;56.28;40.22;;;1.70;99.90;;;;;;4995916;28;20506;-75
2022/01/11 05:05:15;;;;;;;49.92;36.15;;;1.70;99.90;;;;;;4993144;28;20030;-77
2022/01/11 05:07:41;;;;;;;48.42;35.72;;;1.70;99.90;;;;;;5004962;28;20113;-77
2022/01/11 05:10:07;;;;;;;63.22;41.85;;;1.70;99.90;;;;;;5010720;28;20018;-77
2022/01/11 05:12:34;;;;;;;67.72;44.47;;;1.70;99.90;;;;;;5000108;28;20543;-77
2022/01/11 05:14:59;;;;;;;56.92;39.08;;;1.70;99.90;;;;;;4999492;28;20030;-77
2022/01/11 05:17:25;;;;;;;63.45;42.40;;;1.70;99.90;;;;;;5004090;28;20027;-77
2022/01/11 05:19:50;;;;;;;59.97;41.13;;;1.70;99.90;;;;;;4995052;28;20038;-75
2022/01/11 05:22:16;;;;;;;56.28;40.08;;;1.60;99.90;;;;;;5003222;28;20101;-75
2022/01/11 05:24:41;;;;;;;55.42;40.63;;;1.70;99.90;;;;;;5012148;28;20030;-75
2022/01/11 05:27:07;;;;;;;49.92;38.08;;;1.60;99.90;;;;;;5007978;28;20476;-77
2022/01/11 05:29:33;;;;;;;62.53;42.72;;;1.70;99.90;;;;;;5006927;28;20029;-75
2022/01/11 05:31:59;;;;;;;54.05;38.47;;;1.70;99.90;;;;;;5002886;28;20076;-75
2022/01/11 05:34:26;;;;;;;60.92;40.97;;;1.70;99.90;;;;;;5012611;28;20026;-75
2022/01/11 05:36:52;;;;;;;64.10;44.13;;;1.70;99.90;;;;;;5003224;28;20026;-75
2022/01/11 05:39:17;;;;;;;73.93;48.80;;;1.70;99.90;;;;;;5001494;28;20023;-76
2022/01/11 05:41:43;;;;;;;65.75;46.20;;;1.70;99.90;;;;;;5014403;28;20516;-75
2022/01/11 05:44:08;;;;;;;67.25;48.28;;;1.70;99.90;;;;;;5002880;28;20493;-76
2022/01/11 05:46:34;;;;;;;68.63;48.15;;;1.70;99.90;;;;;;5014321;28;20026;-76
2022/01/11 05:49:00;;;;;;;64.70;45.67;;;1.70;99.90;;;;;;5012962;28;20042;-77
2022/01/11 05:51:27;;;;;;;78.30;51.33;;;1.70;99.90;;;;;;5012992;28;20018;-76
2022/01/11 05:53:53;;;;;;;79.57;52.80;;;1.70;99.90;;;;;;4999879;28;20038;-77
2022/01/11 05:56:19;;;;;;;73.18;49.03;;;1.60;99.90;;;;;;5005526;28;20023;-76
2022/01/11 05:58:44;;;;;;;65.38;48.60;;;1.60;99.90;;;;;;5007752;28;20494;-76
2022/01/11 06:01:10;;;;;;;73.95;52.60;;;1.70;99.90;;;;;;5000572;28;20495;-76
2022/01/11 06:03:35;;;;;;;72.28;51.53;;;1.70;99.90;;;;;;5001073;28;20030;-76
2022/01/11 06:06:01;;;;;;;63.20;46.40;;;1.70;99.90;;;;;;5006810;28;20058;-76
2022/01/11 06:08:26;;;;;;;67.10;48.30;;;1.70;99.90;;;;;;4994331;28;20026;-75
2022/01/11 06:10:52;;;;;;;70.88;50.25;;;1.70;99.90;;;;;;4999717;28;20037;-76
2022/01/11 06:13:17;;;;;;;75.55;51.47;;;1.70;99.90;;;;;;4999643;28;20026;-75
2022/01/11 06:15:43;;;;;;;69.15;48.95;;;1.60;99.90;;;;;;5005838;28;20027;-76
2022/01/11 06:18:08;;;;;;;76.20;52.45;;;1.60;99.90;;;;;;5007188;28;20561;-76
2022/01/11 06:20:34;;;;;;;78.32;51.92;;;1.70;99.90;;;;;;4994388;28;20038;-76
2022/01/11 06:23:00;;;;;;;67.60;48.15;;;1.70;99.90;;;;;;5005661;28;20030;-76
2022/01/11 06:25:25;;;;;;;70.03;48.55;;;1.70;99.90;;;;;;4999188;28;20406;-76
2022/01/11 06:27:51;;;;;;;63.70;46.97;;;1.80;99.90;;;;;;5000580;28;20498;-76
2022/01/11 06:30:18;;;;;;;75.35;53.10;;;1.80;99.90;;;;;;4980803;28;20070;-76
2022/01/11 06:32:44;;;;;;;63.38;46.08;;;1.70;99.90;;;;;;5005584;28;20053;-76
2022/01/11 06:35:12;;;;;;;76.53;50.30;;;1.70;99.90;;;;;;5013433;28;20022;-76
2022/01/11 06:37:38;;;;;;;65.68;48.15;;;1.70;99.90;;;;;;4999248;28;20121;-76
2022/01/11 06:40:04;;;;;;;82.70;65.88;;;1.70;99.90;;;;;;5006545;28;20065;-75
2022/01/11 06:42:31;;;;;;;72.10;51.42;;;1.70;99.90;;;;;;5005404;28;20515;-75
2022/01/11 06:44:57;;;;;;;63.97;44.78;;;1.70;99.90;;;;;;4993460;28;20038;-75
2022/01/11 06:47:22;;;;;;;67.68;47.58;;;1.70;99.90;;;;;;5006845;28;20026;-74
2022/01/11 06:49:48;;;;;;;79.93;51.35;;;1.70;99.90;;;;;;4999445;28;20021;-75
2022/01/11 06:52:13;;;;;;;71.60;48.35;;;1.70;99.90;;;;;;4998345;28;20062;-72
2022/01/11 06:54:40;;;;;;;59.45;43.83;;;1.70;99.90;;;;;;5013454;28;20100;-75
2022/01/11 06:57:07;;;;;;;76.07;48.38;;;1.70;99.90;;;;;;5012640;28;20092;-74
2022/01/11 06:59:35;;;;;;;66.05;46.15;;;1.70;99.90;;;;;;4999553;28;20022;-75
2022/01/11 07:02:01;;;;;;;64.18;45.15;;;1.70;99.90;;;;;;5000116;28;20033;-75
2022/01/11 07:04:26;;;;;;;56.80;42.42;;;1.80;99.90;;;;;;5005493;28;20109;-75
2022/01/11 07:06:52;;;;;;;67.47;46.22;;;1.80;99.90;;;;;;5006550;28;20440;-75
2022/01/11 07:09:18;;;;;;;80.30;51.83;;;1.80;99.90;;;;;;5001066;28;20022;-74
2022/01/11 07:11:43;;;;;;;63.05;45.83;;;1.70;99.90;;;;;;5000193;28;20023;-74
2022/01/11 07:14:11;;;;;;;62.85;45.95;;;1.80;99.90;;;;;;4999901;28;20080;-74
2022/01/11 07:16:37;;;;;;;74.40;51.13;;;1.80;99.90;;;;;;4991620;28;20065;-74
2022/01/11 07:19:02;;;;;;;69.80;46.70;;;1.80;99.90;;;;;;5012651;28;20492;-74
2022/01/11 07:21:28;;;;;;;66.75;45.63;;;1.60;99.90;;;;;;4998292;28;20081;-73
2022/01/11 07:23:54;;;;;;;55.45;41.28;;;1.70;99.90;;;;;;5005117;28;20030;-74
2022/01/11 07:26:19;;;;;;;56.53;41.92;;;1.70;99.90;;;;;;5005656;28;20033;-74
2022/01/11 07:28:46;;;;;;;65.43;43.63;;;1.80;99.90;;;;;;5003675;28;20037;-74
2022/01/11 07:31:11;;;;;;;64.32;46.97;;;1.70;99.90;;;;;;4993618;28;20041;-74
2022/01/11 07:33:37;;;;;;;63.53;46.30;;;1.80;99.90;;;;;;5003545;28;20022;-75
2022/01/11 07:36:03;;;;;;;67.82;47.92;;;1.80;99.90;;;;;;5005799;28;20072;-73
2022/01/11 07:38:28;;;;;;;64.63;46.70;;;1.80;99.90;;;;;;4999981;28;20045;-74
2022/01/11 07:40:54;;;;;;;68.25;47.40;;;1.80;99.90;;;;;;4998882;28;20038;-74
2022/01/11 07:43:19;;;;;;;76.53;51.30;;;1.70;99.90;;;;;;5005109;28;20033;-74
2022/01/11 07:45:45;;;;;;;62.60;45.67;;;1.80;99.90;;;;;;4979139;28;20027;-74
2022/01/11 07:48:10;;;;;;;52.75;41.35;;;1.80;99.90;;;;;;5003359;28;20121;-74
2022/01/11 07:50:35;;;;;;;65.35;46.38;;;1.80;99.90;;;;;;5001419;28;20026;-74
2022/01/11 07:53:01;;;;;;;81.13;54.33;;;1.80;99.90;;;;;;4992542;28;20034;-74
2022/01/11 07:55:26;;;;;;;73.63;51.53;;;1.90;99.90;;;;;;5006204;28;20069;-74
2022/01/11 07:57:52;;;;;;;67.10;48.72;;;1.80;99.90;;;;;;5003978;28;20040;-74
2022/01/11 08:00:17;;;;;;;84.05;58.45;;;1.80;99.90;;;;;;4992338;28;20031;-74
2022/01/11 08:02:43;;;;;;;71.97;50.85;;;1.80;99.90;;;;;;5010571;28;20400;-74
2022/01/11 08:05:09;;;;;;;69.70;49.90;;;1.80;99.90;;;;;;5011305;28;20108;-74
2022/01/11 08:07:34;;;;;;;63.72;50.38;;;1.80;99.90;;;;;;4997539;28;20148;-74
2022/01/11 08:10:00;;;;;;;72.07;53.33;;;1.90;99.90;;;;;;5011947;28;20046;-74
2022/01/11 08:12:25;;;;;;;56.35;43.58;;;1.90;99.90;;;;;;5011652;28;20123;-74
2022/01/11 08:14:51;;;;;;;67.13;48.72;;;1.90;99.90;;;;;;5011714;28;20033;-74
2022/01/11 08:17:17;;;;;;;60.03;45.00;;;1.90;99.90;;;;;;5004069;28;20058;-74
2022/01/11 08:19:44;;;;;;;67.32;49.30;;;2.00;99.90;;;;;;5005026;28;20115;-74
2022/01/11 08:22:09;;;;;;;69.63;49.47;;;2.20;99.90;;;;;;4984587;28;20160;-74
2022/01/11 08:24:38;;;;;;;71.63;50.03;;;2.00;99.90;;;;;;5011626;28;20523;-74
2022/01/11 08:27:04;;;;;;;60.97;43.75;;;2.00;99.90;;;;;;5011790;28;20018;-74
2022/01/11 08:29:29;;;;;;;50.63;38.55;;;2.00;99.90;;;;;;5009803;28;20045;-74
2022/01/11 08:31:55;;;;;;;46.17;36.60;;;2.00;99.90;;;;;;4995349;28;20034;-74
2022/01/11 08:34:21;;;;;;;47.17;36.30;;;2.00;99.90;;;;;;5004781;28;20476;-74
2022/01/11 08:36:48;;;;;;;53.40;39.42;;;2.00;99.90;;;;;;4998428;28;20022;-74
2022/01/11 08:39:14;;;;;;;47.28;35.10;;;2.00;99.90;;;;;;4998724;28;20033;-74
2022/01/11 08:41:40;;;;;;;48.03;34.80;;;2.10;99.90;;;;;;5010174;28;20028;-74
2022/01/11 08:44:09;;;;;;;39.88;30.00;;;2.00;99.90;;;;;;5011483;28;20108;-74
2022/01/11 08:46:36;;;;;;;42.92;30.75;;;2.10;99.90;;;;;;5001828;28;20517;-74
2022/01/11 08:49:02;;;;;;;44.85;31.25;;;2.20;99.90;;;;;;4993419;28;20035;-74
2022/01/11 08:51:28;;;;;;;49.80;35.97;;;2.30;99.90;;;;;;4996419;28;20015;-74
2022/01/11 08:53:54;;;;;;;47.15;35.33;;;2.40;99.90;;;;;;5004759;28;20499;-74
2022/01/11 08:56:19;;;;;;;40.13;31.85;;;2.40;99.90;;;;;;5001569;28;20461;-74
2022/01/11 08:58:45;;;;;;;41.28;34.63;;;2.30;99.90;;;;;;5000821;28;20080;-74
2022/01/11 09:01:11;;;;;;;51.08;41.83;;;2.40;99.90;;;;;;5015190;28;20061;-74
2022/01/11 09:03:37;;;;;;;50.67;40.33;;;2.50;99.90;;;;;;5001940;28;20026;-74
2022/01/11 09:06:07;;;;;;;45.47;35.17;;;2.50;99.90;;;;;;5007010;28;20030;-75
2022/01/11 09:08:33;;;;;;;55.97;31.10;;;2.40;99.90;;;;;;4999600;28;20038;-74
2022/01/11 09:10:58;;;;;;;41.35;31.75;;;2.30;99.90;;;;;;5004067;28;20018;-74
2022/01/11 09:13:26;;;;;;;39.13;29.35;;;2.20;99.90;;;;;;5005540;28;20049;-74
2022/01/11 09:15:51;;;;;;;34.13;26.95;;;2.40;99.90;;;;;;5007424;28;20497;-73
2022/01/11 09:18:17;;;;;;;36.85;27.13;;;2.50;99.90;;;;;;5009736;28;20105;-74
2022/01/11 09:20:42;;;;;;;37.97;29.98;;;2.50;99.90;;;;;;5007196;28;20030;-74
2022/01/11 09:23:08;;;;;;;41.17;33.75;;;2.60;99.90;;;;;;5008894;28;20030;-74
2022/01/11 09:25:33;;;;;;;34.33;27.75;;;2.70;99.90;;;;;;5002265;28;20491;-74
2022/01/11 09:27:59;;;;;;;34.95;27.40;;;2.80;99.90;;;;;;5014293;28;20064;-74
2022/01/11 09:30:25;;;;;;;32.13;27.08;;;2.70;99.90;;;;;;5002161;28;20066;-75
2022/01/11 09:32:50;;;;;;;33.88;27.13;;;2.70;99.90;;;;;;5001379;28;20062;-75
2022/01/11 09:35:16;;;;;;;32.30;27.38;;;2.70;99.90;;;;;;5007585;28;20026;-74
2022/01/11 09:37:41;;;;;;;36.30;29.23;;;2.90;99.90;;;;;;4993732;28;20131;-75
2022/01/11 09:40:09;;;;;;;33.33;27.77;;;2.80;99.90;;;;;;5001436;28;20435;-75
2022/01/11 09:42:36;;;;;;;35.83;26.77;;;2.80;99.90;;;;;;5012922;28;20049;-74
2022/01/11 09:45:04;;;;;;;33.28;27.35;;;2.80;99.90;;;;;;4994719;28;20101;-75
2022/01/11 09:47:29;;;;;;;36.33;28.52;;;2.80;99.90;;;;;;5007685;28;20444;-73
2022/01/11 09:49:55;;;;;;;27.48;23.42;;;3.00;99.90;;;;;;4994833;28;20061;-73
2022/01/11 09:52:26;;;;;;;30.98;23.40;;;3.10;99.90;;;;;;5007799;28;20033;-73
2022/01/11 09:54:52;;;;;;;28.13;23.85;;;3.30;99.90;;;;;;4994582;28;20026;-73
2022/01/11 09:57:18;;;;;;;28.02;22.98;;;3.20;99.90;;;;;;5006695;28;20030;-73
2022/01/11 09:59:43;;;;;;;27.75;23.08;;;3.20;99.90;;;;;;5004013;28;20396;-74
2022/01/11 10:02:09;;;;;;;26.02;21.45;;;3.10;99.90;;;;;;5000908;28;20034;-74
2022/01/11 10:04:36;;;;;;;26.63;21.80;;;3.20;99.90;;;;;;5003560;28;20031;-74
2022/01/11 10:07:05;;;;;;;27.75;22.42;;;3.10;99.90;;;;;;4997339;28;20029;-74
2022/01/11 10:09:32;;;;;;;25.50;20.60;;;3.20;99.90;;;;;;5004119;28;20378;-74
2022/01/11 10:12:00;;;;;;;26.20;20.70;;;3.20;99.90;;;;;;5007706;28;20033;-74
2022/01/11 10:14:33;;;;;;;22.52;19.70;;;3.20;99.90;;;;;;5004807;28;20029;-74
2022/01/11 10:17:10;;;;;;;23.67;19.63;;;3.30;99.90;;;;;;5013893;28;20033;-74
2022/01/11 10:19:40;;;;;;;23.73;19.35;;;3.40;99.90;;;;;;5012500;28;20034;-74
2022/01/11 10:22:09;;;;;;;23.77;19.67;;;3.40;99.90;;;;;;4988432;28;20030;-73
2022/01/11 10:24:44;;;;;;;23.42;18.50;;;3.60;99.90;;;;;;4999073;28;20117;-74
2022/01/11 10:27:25;;;;;;;23.98;17.85;;;3.60;99.90;;;;;;5013693;28;20037;-74
2022/01/11 10:29:59;;;;;;;21.42;17.08;;;3.70;99.90;;;;;;5013557;28;20029;-74
2022/01/11 10:32:31;;;;;;;20.63;16.75;;;3.70;99.90;;;;;;5012100;28;20030;-74
2022/01/11 10:35:00;;;;;;;19.08;15.98;;;3.60;99.90;;;;;;5000215;28;20061;-73
2022/01/11 10:37:37;;;;;;;19.65;16.17;;;3.60;99.90;;;;;;4999636;28;20038;-73
2022/01/11 10:40:11;;;;;;;19.33;15.60;;;3.70;99.90;;;;;;4989347;28;20045;-75
2022/01/11 10:42:46;;;;;;;18.83;15.07;;;3.80;99.90;;;;;;4999057;28;20026;-74
2022/01/11 10:45:26;;;;;;;16.55;14.63;;;3.70;99.90;;;;;;4984203;28;20021;-75
2022/01/11 10:47:55;;;;;;;16.60;14.70;;;3.70;99.90;;;;;;5006957;28;20034;-75
2022/01/11 10:50:37;;;;;;;16.60;14.30;;;3.70;99.90;;;;;;5003989;28;20030;-74
2022/01/11 10:53:20;;;;;;;17.23;14.13;;;3.90;99.90;;;;;;5011284;28;20045;-75
2022/01/11 10:56:00;;;;;;;18.02;13.98;;;3.90;99.90;;;;;;5012918;28;20161;-75
2022/01/11 10:58:28;;;;;;;17.02;14.43;;;3.80;99.90;;;;;;5002009;28;20058;-75
2022/01/11 11:00:55;;;;;;;16.77;14.32;;;4.00;99.90;;;;;;5005127;28;20026;-75
2022/01/11 11:03:23;;;;;;;16.17;13.95;;;3.90;99.90;;;;;;5005000;28;20080;-75
2022/01/11 11:05:50;;;;;;;15.35;13.30;;;4.00;99.90;;;;;;5007818;28;20022;-75
2022/01/11 11:08:24;;;;;;;16.02;13.93;;;3.90;99.90;;;;;;4992019;28;20033;-75
2022/01/11 11:10:49;;;;;;;17.20;13.13;;;3.90;99.90;;;;;;4998194;28;20022;-75
2022/01/11 11:13:36;;;;;;;14.65;12.30;;;4.00;99.90;;;;;;5010244;28;20159;-75
2022/01/11 11:16:27;;;;;;;14.48;11.95;;;4.10;99.90;;;;;;5012762;28;20022;-75
2022/01/11 11:18:58;;;;;;;13.13;11.75;;;4.00;99.90;;;;;;4999753;28;20026;-75
2022/01/11 11:21:26;;;;;;;14.05;11.65;;;4.10;99.90;;;;;;4991776;28;20039;-75
2022/01/11 11:23:59;;;;;;;13.35;11.15;;;3.90;99.90;;;;;;5005775;28;20053;-77
2022/01/11 11:26:28;;;;;;;13.40;11.90;;;3.90;99.90;;;;;;4998561;28;20057;-75
2022/01/11 11:28:54;;;;;;;15.18;12.68;;;3.90;99.90;;;;;;5005761;28;20512;-73
2022/01/11 11:31:21;;;;;;;15.07;12.40;;;4.30;99.90;;;;;;5004738;28;20041;-74
2022/01/11 11:33:47;;;;;;;15.07;13.15;;;4.20;99.90;;;;;;5001252;28;20027;-74
2022/01/11 11:36:14;;;;;;;23.88;21.30;;;4.00;99.90;;;;;;5009277;28;20015;-75
2022/01/11 11:38:52;;;;;;;14.52;12.95;;;4.10;99.90;;;;;;5010068;28;20030;-75
2022/01/11 11:41:19;;;;;;;14.25;11.65;;;3.90;99.90;;;;;;5007880;28;20471;-75
2022/01/11 11:44:16;;;;;;;13.68;11.45;;;3.80;99.90;;;;;;5003685;28;20030;-74
2022/01/11 11:46:43;;;;;;;15.15;12.38;;;3.70;99.90;;;;;;5002511;28;20155;-75
2022/01/11 11:49:08;;;;;;;11.98;10.73;;;3.70;99.90;;;;;;5007377;28;20023;-75
2022/01/11 11:51:42;;;;;;;11.57;10.38;;;3.70;99.90;;;;;;5008657;28;20026;-75
2022/01/11 11:54:16;;;;;;;12.10;10.30;;;3.70;99.90;;;;;;5004043;28;20424;-75
2022/01/11 11:56:46;;;;;;;14.65;11.57;;;3.50;99.90;;;;;;5009726;28;20030;-75
2022/01/11 11:59:13;;;;;;;14.98;11.95;;;3.50;99.90;;;;;;5004157;28;20022;-75
2022/01/11 12:01:42;;;;;;;15.02;11.88;;;3.40;99.90;;;;;;5007178;28;20477;-75
2022/01/11 12:04:11;;;;;;;15.57;12.35;;;3.40;99.90;;;;;;4992342;28;20129;-75
2022/01/11 12:06:37;;;;;;;15.43;12.23;;;3.40;99.90;;;;;;5008943;28;20076;-75
2022/01/11 12:09:12;;;;;;;13.77;11.90;;;3.40;99.90;;;;;;5010475;28;20026;-75
2022/01/11 12:11:43;;;;;;;14.68;12.77;;;3.30;99.90;;;;;;4991950;28;20023;-75
2022/01/11 12:14:30;;;;;;;15.27;12.20;;;3.40;99.90;;;;;;5008581;28;20105;-75
2022/01/11 12:16:57;;;;;;;14.75;11.30;;;3.50;99.90;;;;;;5004819;28;20019;-75
2022/01/11 12:19:49;;;;;;;12.70;11.23;;;3.60;99.90;;;;;;5000187;28;20066;-75
2022/01/11 12:22:17;;;;;;;13.73;11.20;;;3.70;99.90;;;;;;4989046;28;20394;-75
2022/01/11 12:24:45;;;;;;;12.50;10.93;;;3.50;99.90;;;;;;5007605;28;20030;-75
2022/01/11 12:27:13;;;;;;;13.20;11.07;;;3.60;99.90;;;;;;5006772;28;20022;-75
2022/01/11 12:29:52;;;;;;;12.65;10.60;;;3.40;99.90;;;;;;4998153;28;20027;-75
2022/01/11 12:32:19;;;;;;;11.23;10.15;;;3.50;99.90;;;;;;5015578;28;20030;-75
2022/01/11 12:34:50;;;;;;;11.68;10.02;;;3.40;99.90;;;;;;5008862;28;20064;-75
2022/01/11 12:37:54;;;;;;;12.52;10.15;;;3.50;99.90;;;;;;5002676;28;20030;-74
2022/01/11 12:40:23;;;;;;;11.23;9.88;;;3.50;99.90;;;;;;4999721;28;20093;-75
2022/01/11 12:42:57;;;;;;;11.98;10.02;;;3.50;99.90;;;;;;5008955;28;20097;-75